Climatologie pour Saint-Brevin les Pins
Jour • Résumé pour juin 7, 2017 Système :  Métrique    Anglais   Mixte
« - 1 jour
+ 1 jour »
Jour Semaine Mois Année Personnalisé
  Maximum : Minimum : Moyenne :
Température sous abri : -17.8 °C -10.5 °C -9.1 °C
Point de rosée : -17.8 °C -12.7 °C -11.4 °C
Humidité : Humidity % 65 % 76 %
Vitesse du vent : 0 km/h 0 km/h 14.6 km/h
Rafale : 0 km/h - -
Direction :- - West
Pression : 0 hPa 34452.6 hPa -
Précipitations : 0 mm    
Historical Graphs
 
 
Tableau de données pour juin 7, 2017
Heure Tempé Pt rosée Pression Vent Vitesse Rafale Humidité Taux pluie (/hr) Soleil
-17.8 °C -17.8 °C 0 hPa Calm     Humidity % 0 mm SolarRadiationWatts/m^2 W/m2 Conditions
00:00 -10.1 °C -12.1 °C 34452.6 hPa WNW 31.1 km/h 44.1 km/h 79 % 0 mm 0 W/m2
00:10 -10.2 °C -12.3 °C 34452.6 hPa West 28.5 km/h 44.1 km/h 78 % 0 mm 0 W/m2
00:15 -10.1 °C -12.2 °C 34452.6 hPa WNW 23.3 km/h 38.8 km/h 78 % 0 mm 0 W/m2
00:20 -10.1 °C -12.2 °C 34452.6 hPa NW 25.9 km/h 44.1 km/h 78 % 0 mm 0 W/m2
00:25 -10.1 °C -12.3 °C 34452.6 hPa NW 18.2 km/h 44.1 km/h 77 % 0 mm 0 W/m2
00:30 -10.1 °C -12.1 °C 34452.6 hPa NW 23.3 km/h 38.8 km/h 78 % 0 mm 0 W/m2
00:35 -10 °C -12.2 °C 34452.6 hPa NW 23.3 km/h 46.7 km/h 77 % 0 mm 0 W/m2
00:40 -10.1 °C -12.4 °C 34452.6 hPa WSW 25.9 km/h 46.7 km/h 75 % 0 mm 0 W/m2
00:45 -10 °C -12.4 °C 34462.7 hPa WSW 33.6 km/h 46.7 km/h 75 % 0 mm 0 W/m2
00:50 -10.1 °C -12.4 °C 34462.7 hPa WNW 12.9 km/h 54.4 km/h 75 % 0 mm 0 W/m2
00:55 -10 °C -12.4 °C 34462.7 hPa West 18.2 km/h 54.4 km/h 75 % 0 mm 0 W/m2
01:00 -9.9 °C -12.3 °C 34462.7 hPa NW 18.2 km/h 44.1 km/h 76 % 0 mm 0 W/m2
01:05 -9.9 °C -12.2 °C 34462.7 hPa WNW 18.2 km/h 38.8 km/h 77 % 0 mm 0 W/m2
01:10 -10 °C -12.3 °C 34462.7 hPa WNW 28.5 km/h 44.1 km/h 76 % 0 mm 0 W/m2
01:15 -9.9 °C -12.4 °C 34462.7 hPa WNW 20.8 km/h 44.1 km/h 75 % 0 mm 0 W/m2
01:20 -10 °C -12.4 °C 34462.7 hPa WSW 23.3 km/h 51.8 km/h 75 % 0 mm 0 W/m2
01:25 -10 °C -12.3 °C 34462.7 hPa WNW 23.3 km/h 51.8 km/h 76 % 0 mm 0 W/m2
01:30 -10.1 °C -12.3 °C 34462.7 hPa West 12.9 km/h 49.2 km/h 77 % 0 mm 0 W/m2
01:35 -10.1 °C -12.2 °C 34462.7 hPa NNW 23.3 km/h 46.7 km/h 78 % 0 mm 0 W/m2
01:40 -10.2 °C -12.2 °C 34462.7 hPa WNW 15.6 km/h 46.7 km/h 79 % 0 mm 0 W/m2
01:45 -10.2 °C -12.2 °C 34462.7 hPa WNW 10.3 km/h 44.1 km/h 79 % 0 mm 0 W/m2
01:50 -10.2 °C -12.1 °C 34462.7 hPa WNW 12.9 km/h 38.8 km/h 80 % 0 mm 0 W/m2
01:55 -10.3 °C -12.2 °C 34462.7 hPa WNW 10.3 km/h 33.6 km/h 80 % 0 mm 0 W/m2
02:00 -10.3 °C -12.2 °C 34462.7 hPa WNW 15.6 km/h 33.6 km/h 80 % 0 mm 0 W/m2
02:05 -10.4 °C -12.3 °C 34476.3 hPa WNW 12.9 km/h 33.6 km/h 79 % 0 mm 0 W/m2
02:10 -10.4 °C -12.3 °C 34476.3 hPa WNW 18.2 km/h 36.2 km/h 79 % 0 mm 0 W/m2
02:15 -10.4 °C -12.2 °C 34476.3 hPa NW 18.2 km/h 36.2 km/h 80 % 0 mm 0 W/m2
02:20 -10.3 °C -12.6 °C 34476.3 hPa NW 10.3 km/h 41.4 km/h 77 % 0 mm 0 W/m2
02:25 -10.3 °C -12.7 °C 34476.3 hPa West 20.8 km/h 41.4 km/h 76 % 0 mm 0 W/m2
02:30 -10.4 °C -12.7 °C 34476.3 hPa WNW 15.6 km/h 44.1 km/h 76 % 0 mm 0 W/m2
02:35 -10.4 °C -12.4 °C 34476.3 hPa WNW 23.3 km/h 44.1 km/h 78 % 0 mm 0 W/m2
02:40 -10.4 °C -12.3 °C 34476.3 hPa WNW 5.1 km/h 36.2 km/h 79 % 0 mm 0 W/m2
02:45 -10.3 °C -12.4 °C 34476.3 hPa West 18.2 km/h 46.7 km/h 78 % 0 mm 0 W/m2
02:50 -10.4 °C -12.3 °C 34476.3 hPa WNW 20.8 km/h 46.7 km/h 79 % 0 mm 0 W/m2
02:55 -10.4 °C -12.4 °C 34476.3 hPa NW 23.3 km/h 46.7 km/h 79 % 0 mm 0 W/m2
03:00 -10.4 °C -12.4 °C 34476.3 hPa WNW 23.3 km/h 41.4 km/h 79 % 0 mm 0 W/m2
03:05 -10.4 °C -12.4 °C 34476.3 hPa WNW 15.6 km/h 41.4 km/h 79 % 0 mm 0 W/m2
03:10 -10.4 °C -12.4 °C 34476.3 hPa West 33.6 km/h 41.4 km/h 79 % 0 mm 0 W/m2
03:15 -10.4 °C -12.4 °C 34476.3 hPa West 12.9 km/h 41.4 km/h 78 % 0 mm 0 W/m2
03:20 -10.3 °C -12.4 °C 34476.3 hPa West 20.8 km/h 41.4 km/h 78 % 0 mm 0 W/m2
03:25 -10.4 °C -12.4 °C 34476.3 hPa WNW 31.1 km/h 36.2 km/h 79 % 0 mm 0 W/m2
03:30 -10.4 °C -12.4 °C 34476.3 hPa NW 5.1 km/h 46.7 km/h 79 % 0 mm 0 W/m2
03:35 -10.3 °C -12.4 °C 34476.3 hPa NW 18.2 km/h 46.7 km/h 78 % 0 mm 0 W/m2
03:40 -10.3 °C -12.4 °C 34486.4 hPa WSW 28.5 km/h 44.1 km/h 78 % 0 mm 0 W/m2
03:45 -10.3 °C -12.5 °C 34476.3 hPa WNW 25.9 km/h 41.4 km/h 77 % 0 mm 0 W/m2
03:50 -10.3 °C -12.5 °C 34476.3 hPa WNW 12.9 km/h 41.4 km/h 77 % 0 mm 0 W/m2
03:55 -10.3 °C -12.4 °C 34476.3 hPa West 25.9 km/h 41.4 km/h 78 % 0 mm 0 W/m2
04:00 -10.2 °C -12.4 °C 34476.3 hPa WNW 28.5 km/h 41.4 km/h 77 % 0 mm 0 W/m2
04:05 -10.2 °C -12.3 °C 34476.3 hPa NW 25.9 km/h 44.1 km/h 77 % 0 mm 0 W/m2
04:10 -10.2 °C -12.4 °C 34476.3 hPa WNW 28.5 km/h 44.1 km/h 77 % 0 mm 0 W/m2
04:15 -10.2 °C -12.3 °C 34476.3 hPa WNW 12.9 km/h 41.4 km/h 77 % 0 mm 0 W/m2
04:20 -10.1 °C -12.2 °C 34476.3 hPa WNW 23.3 km/h 41.4 km/h 78 % 0 mm 0 W/m2
04:25 -10.2 °C -12.3 °C 34476.3 hPa WNW 18.2 km/h 36.2 km/h 78 % 0 mm 0 W/m2
04:30 -10.2 °C -12.3 °C 34476.3 hPa NW 10.3 km/h 41.4 km/h 78 % 0 mm 0 W/m2
04:35 -10.2 °C -12.2 °C 34476.3 hPa WNW 15.6 km/h 41.4 km/h 78 % 0 mm 0 W/m2
04:40 -10.1 °C -12.2 °C 34476.3 hPa WNW 28.5 km/h 41.4 km/h 78 % 0 mm 0 W/m2
04:45 -10.1 °C -12.2 °C 34476.3 hPa NW 7.7 km/h 38.8 km/h 78 % 0 mm 0 W/m2
04:50 -10.1 °C -12.1 °C 34486.4 hPa WNW 5.1 km/h 38.8 km/h 79 % 0 mm 0 W/m2
04:55 -10.1 °C -12 °C 34486.4 hPa WNW 7.7 km/h 38.8 km/h 79 % 0 mm 0 W/m2
05:00 -10.1 °C -12 °C 34486.4 hPa NW 31.1 km/h 38.8 km/h 79 % 0 mm 0 W/m2
05:05 -10 °C -12 °C 34486.4 hPa West 12.9 km/h 41.4 km/h 79 % 0 mm 0 W/m2
05:10 -10 °C -12 °C 34486.4 hPa WNW 12.9 km/h 41.4 km/h 79 % 0 mm 0 W/m2
05:20 -10.1 °C -11.9 °C 34486.4 hPa WNW 31.1 km/h 36.2 km/h 80 % 0 mm 0 W/m2
05:25 -10.1 °C -12 °C 34486.4 hPa WNW 10.3 km/h 36.2 km/h 79 % 0 mm 0 W/m2
05:30 -10.1 °C -12.2 °C 34486.4 hPa West 25.9 km/h 36.2 km/h 78 % 0 mm 0 W/m2
05:35 -10.1 °C -12.2 °C 34486.4 hPa West 20.8 km/h 33.6 km/h 78 % 0 mm 0 W/m2
05:40 -10.2 °C -12.3 °C 34486.4 hPa WNW 12.9 km/h 38.8 km/h 78 % 0 mm 0 W/m2
05:45 -10.2 °C -12.2 °C 34486.4 hPa NW 23.3 km/h 38.8 km/h 78 % 0 mm 0 W/m2
05:50 -10.2 °C -12.2 °C 34486.4 hPa NNW 10.3 km/h 44.1 km/h 78 % 0 mm 0 W/m2
05:55 -10.2 °C -12.3 °C 34496.6 hPa WNW 25.9 km/h 44.1 km/h 78 % 0 mm 0 W/m2
06:00 -10.3 °C -12.3 °C 34496.6 hPa WNW 28.5 km/h 41.4 km/h 79 % 0 mm 0 W/m2
06:05 -10.3 °C -12.3 °C 34496.6 hPa WNW 12.9 km/h 36.2 km/h 79 % 0 mm 0 W/m2
06:10 -10.3 °C -12.2 °C 34496.6 hPa NW 12.9 km/h 33.6 km/h 80 % 0 mm 0 W/m2
06:15 -10.4 °C -12.2 °C 34496.6 hPa WNW 10.3 km/h 28.5 km/h 81 % 0 mm 0 W/m2
06:20 -10.3 °C -12.2 °C 34496.6 hPa WNW 10.3 km/h 31.1 km/h 80 % 0 mm 5 W/m2
06:25 -10.4 °C -12.2 °C 34496.6 hPa WNW 18.2 km/h 31.1 km/h 80 % 0 mm 7 W/m2
06:30 -10.4 °C -12.2 °C 34496.6 hPa WNW 10.3 km/h 25.9 km/h 81 % 0 mm 9 W/m2
06:35 -10.5 °C -12.2 °C 34496.6 hPa WNW 15.6 km/h 25.9 km/h 82 % 0 mm 9 W/m2
06:40 -10.5 °C -12.2 °C 34496.6 hPa NW 12.9 km/h 28.5 km/h 82 % 0 mm 11 W/m2
06:45 -10.5 °C -12.2 °C 34496.6 hPa West 15.6 km/h 28.5 km/h 82 % 0 mm 11 W/m2
06:50 -10.5 °C -12.1 °C 34510.1 hPa NW 20.8 km/h 25.9 km/h 83 % 0 mm 16 W/m2
06:55 -10.4 °C -12.1 °C 34510.1 hPa WNW 15.6 km/h 28.5 km/h 83 % 0 mm 42 W/m2
07:00 -10.4 °C -11.9 °C 34510.1 hPa West 10.3 km/h 28.5 km/h 83 % 0 mm 46 W/m2
07:05 -10.3 °C -12 °C 34510.1 hPa WNW 10.3 km/h 25.9 km/h 82 % 0 mm 37 W/m2
07:10 -10.3 °C -11.9 °C 34510.1 hPa WNW 7.7 km/h 31.1 km/h 82 % 0 mm 35 W/m2
07:15 -10.3 °C -12 °C 34510.1 hPa NW 15.6 km/h 33.6 km/h 82 % 0 mm 53 W/m2
07:20 -10.2 °C -11.9 °C 34510.1 hPa NW 18.2 km/h 33.6 km/h 82 % 0 mm 62 W/m2
07:25 -10.1 °C -11.9 °C 34510.1 hPa WNW 20.8 km/h 31.1 km/h 81 % 0 mm 67 W/m2
07:30 -10.1 °C -11.9 °C 34510.1 hPa WNW 15.6 km/h 31.1 km/h 80 % 0 mm 72 W/m2
07:35 -10 °C -11.9 °C 34520.3 hPa WNW 10.3 km/h 28.5 km/h 80 % 0 mm 63 W/m2
07:40 -10.1 °C -11.9 °C 34520.3 hPa WNW 12.9 km/h 28.5 km/h 80 % 0 mm 58 W/m2
07:45 -10.1 °C -11.9 °C 34520.3 hPa WNW 7.7 km/h 28.5 km/h 80 % 0 mm 58 W/m2
07:50 -9.9 °C -11.9 °C 34520.3 hPa WNW 10.3 km/h 28.5 km/h 79 % 0 mm 102 W/m2
07:55 -9.9 °C -11.9 °C 34520.3 hPa NW 10.3 km/h 28.5 km/h 79 % 0 mm 183 W/m2
08:00 -9.9 °C -11.9 °C 34533.8 hPa WNW 20.8 km/h 28.5 km/h 79 % 0 mm 163 W/m2
08:05 -9.8 °C -11.8 °C 34533.8 hPa WNW 10.3 km/h 28.5 km/h 79 % 0 mm 185 W/m2
08:10 -9.8 °C -11.9 °C 34533.8 hPa NW 18.2 km/h 25.9 km/h 78 % 0 mm 204 W/m2
08:15 -9.7 °C -11.9 °C 34533.8 hPa WNW 18.2 km/h 25.9 km/h 77 % 0 mm 265 W/m2
08:20 -9.6 °C -11.8 °C 34533.8 hPa NW 12.9 km/h 33.6 km/h 77 % 0 mm 279 W/m2
08:25 -9.6 °C -11.8 °C 34533.8 hPa WNW 5.1 km/h 36.2 km/h 77 % 0 mm 290 W/m2
08:30 -9.5 °C -11.7 °C 34533.8 hPa WNW 12.9 km/h 36.2 km/h 77 % 0 mm 315 W/m2
08:35 -9.3 °C -11.8 °C 34533.8 hPa WNW 15.6 km/h 31.1 km/h 75 % 0 mm 327 W/m2
08:40 -9.3 °C -11.8 °C 34533.8 hPa WNW 15.6 km/h 33.6 km/h 74 % 0 mm 334 W/m2
08:45 -9.3 °C -11.7 °C 34544 hPa NW 18.2 km/h 33.6 km/h 75 % 0 mm 329 W/m2
08:50 -9.3 °C -11.8 °C 34544 hPa West 12.9 km/h 33.6 km/h 74 % 0 mm 320 W/m2
08:55 -9.2 °C -11.8 °C 34544 hPa WNW 23.3 km/h 33.6 km/h 74 % 0 mm 388 W/m2
09:00 -9.1 °C -11.7 °C 34544 hPa West 20.8 km/h 31.1 km/h 74 % 0 mm 404 W/m2
09:05 -9 °C -11.7 °C 34544 hPa NW 7.7 km/h 28.5 km/h 73 % 0 mm 330 W/m2
09:10 -8.9 °C -11.5 °C 34544 hPa West 20.8 km/h 38.8 km/h 74 % 0 mm 459 W/m2
09:15 -8.9 °C -11.5 °C 34544 hPa WNW 15.6 km/h 38.8 km/h 74 % 0 mm 443 W/m2
09:20 -9 °C -11.8 °C 34544 hPa West 7.7 km/h 33.6 km/h 72 % 0 mm 323 W/m2
09:25 -9.1 °C -11.7 °C 34533.8 hPa WNW 18.2 km/h 33.6 km/h 73 % 0 mm 381 W/m2
09:30 -9 °C -11.3 °C 34554.1 hPa WNW 20.8 km/h 33.6 km/h 76 % 0 mm 503 W/m2
09:35 -8.8 °C -11.3 °C 34544 hPa WSW 20.8 km/h 31.1 km/h 75 % 0 mm 250 W/m2
09:40 -8.8 °C -11.3 °C 34544 hPa NW 7.7 km/h 31.1 km/h 75 % 0 mm 633 W/m2
09:45 -8.7 °C -11.6 °C 34544 hPa Calm   31.1 km/h 72 % 0 mm 652 W/m2
09:50 -8.8 °C -11.4 °C 34554.1 hPa WNW 10.3 km/h 31.1 km/h 74 % 0 mm 253 W/m2
09:55 -8.9 °C -11.5 °C 34554.1 hPa West 15.6 km/h 28.5 km/h 74 % 0 mm 309 W/m2
10:00 -9 °C -11.4 °C 34554.1 hPa West 25.9 km/h 31.1 km/h 75 % 0 mm 290 W/m2
10:05 -9 °C -11.4 °C 34567.7 hPa West 18.2 km/h 33.6 km/h 75 % 0 mm 297 W/m2
10:10 -8.8 °C -11.2 °C 34554.1 hPa NW 5.1 km/h 33.6 km/h 75 % 0 mm 805 W/m2
10:15 -8.8 °C -11.5 °C 34567.7 hPa NW 28.5 km/h 28.5 km/h 73 % 0 mm 237 W/m2
10:25 -9.2 °C -11 °C 34567.7 hPa WNW 12.9 km/h 36.2 km/h 81 % 0 mm 288 W/m2
10:30 -9.2 °C -11 °C 34567.7 hPa West 23.3 km/h 36.2 km/h 81 % 0 mm 230 W/m2
10:35 -9.1 °C -11 °C 34567.7 hPa WSW 18.2 km/h 28.5 km/h 80 % 0 mm 657 W/m2
10:40 -8.7 °C -11.1 °C 34567.7 hPa WSW 12.9 km/h 28.5 km/h 76 % 0 mm 700 W/m2
10:45 -8.4 °C -10.8 °C 34567.7 hPa WNW 15.6 km/h 28.5 km/h 75 % 0 mm 680 W/m2
10:50 -8.6 °C -11.3 °C 34567.7 hPa SW 10.3 km/h 31.1 km/h 73 % 0 mm 668 W/m2
10:55 -8.5 °C -10.9 °C 34577.8 hPa SW 31.1 km/h 36.2 km/h 75 % 0 mm 677 W/m2
11:00 -8.4 °C -11 °C 34577.8 hPa WSW 18.2 km/h 36.2 km/h 74 % 0 mm 624 W/m2
11:05 -8.4 °C -10.9 °C 34577.8 hPa West 2.6 km/h 31.1 km/h 75 % 0 mm 724 W/m2
11:10 -8.4 °C -11.3 °C 34567.7 hPa West 20.8 km/h 33.6 km/h 72 % 0 mm 712 W/m2
11:15 -8.2 °C -10.9 °C 34567.7 hPa NW 12.9 km/h 33.6 km/h 73 % 0 mm 693 W/m2
11:20 -8.2 °C -11.3 °C 34567.7 hPa West 10.3 km/h 31.1 km/h 70 % 0 mm 735 W/m2
11:25 -8.3 °C -11.1 °C 34567.7 hPa WSW 5.1 km/h 31.1 km/h 72 % 0 mm 689 W/m2
11:30 -8.1 °C -11.1 °C 34567.7 hPa WNW 31.1 km/h 36.2 km/h 71 % 0 mm 752 W/m2
11:35 -8.4 °C -11.2 °C 34567.7 hPa West 15.6 km/h 36.2 km/h 72 % 0 mm 758 W/m2
11:40 -8.2 °C -10.9 °C 34577.8 hPa West 18.2 km/h 31.1 km/h 73 % 0 mm 701 W/m2
11:45 -7.8 °C -10.7 °C 34577.8 hPa WSW 20.8 km/h 28.5 km/h 72 % 0 mm 782 W/m2
11:50 -8.1 °C -11.3 °C 34577.8 hPa West 12.9 km/h 38.8 km/h 69 % 0 mm 821 W/m2
12:00 -8.1 °C -11.8 °C 34577.8 hPa West 31.1 km/h 33.6 km/h 65 % 0 mm 770 W/m2
12:05 -7.9 °C -11.1 °C 34577.8 hPa WSW 18.2 km/h 33.6 km/h 70 % 0 mm 807 W/m2
12:10 -7.6 °C -11.1 °C 34591.4 hPa West 20.8 km/h 31.1 km/h 67 % 0 mm 853 W/m2
12:15 -7.9 °C -11.4 °C 34577.8 hPa WSW 12.9 km/h 36.2 km/h 67 % 0 mm 847 W/m2
12:20 -8.1 °C -11.5 °C 34577.8 hPa WNW 15.6 km/h 36.2 km/h 67 % 0 mm 856 W/m2
12:25 -8.1 °C -11.4 °C 34591.4 hPa West 10.3 km/h 31.1 km/h 68 % 0 mm 830 W/m2
12:30 -7.8 °C -10.9 °C 34591.4 hPa WSW 10.3 km/h 31.1 km/h 70 % 0 mm 877 W/m2
12:35 -7.8 °C -11.4 °C 34591.4 hPa WSW 12.9 km/h 33.6 km/h 66 % 0 mm 858 W/m2
12:40 -7.9 °C -11.1 °C 34591.4 hPa WSW 25.9 km/h 33.6 km/h 69 % 0 mm 882 W/m2
12:45 -8 °C -11.2 °C 34591.4 hPa WNW 10.3 km/h 33.6 km/h 69 % 0 mm 856 W/m2
12:50 -7.8 °C -10.9 °C 34591.4 hPa WSW 15.6 km/h 36.2 km/h 70 % 0 mm 877 W/m2
12:55 -7.7 °C -11 °C 34591.4 hPa WSW 25.9 km/h 41.4 km/h 68 % 0 mm 889 W/m2
13:00 -7.7 °C -11.1 °C 34591.4 hPa West 10.3 km/h 41.4 km/h 67 % 0 mm 893 W/m2
13:05 -7.8 °C -10.7 °C 34591.4 hPa WSW 18.2 km/h 36.2 km/h 72 % 0 mm 898 W/m2
13:10 -7.4 °C -10.3 °C 34591.4 hPa West 31.1 km/h 38.8 km/h 72 % 0 mm 923 W/m2
13:15 -7.6 °C -10.8 °C 34591.4 hPa NW 10.3 km/h 38.8 km/h 69 % 0 mm 912 W/m2
13:20 -7.6 °C -11.1 °C 34591.4 hPa WSW 23.3 km/h 38.8 km/h 67 % 0 mm 949 W/m2
13:25 -7.7 °C -11.1 °C 34591.4 hPa WSW 5.1 km/h 38.8 km/h 68 % 0 mm 956 W/m2
13:30 -7.7 °C -11.1 °C 34591.4 hPa West 20.8 km/h 36.2 km/h 68 % 0 mm 904 W/m2
13:35 -7.7 °C -10.9 °C 34591.4 hPa West 20.8 km/h 28.5 km/h 69 % 0 mm 907 W/m2
13:40 -7.7 °C -11.1 °C 34577.8 hPa WSW 23.3 km/h 28.5 km/h 68 % 0 mm 889 W/m2
13:45 -7.4 °C -10.7 °C 34577.8 hPa WSW 7.7 km/h 33.6 km/h 69 % 0 mm 911 W/m2
13:50 -7.7 °C -10.9 °C 34577.8 hPa WNW 7.7 km/h 33.6 km/h 69 % 0 mm 914 W/m2
13:55 -7.5 °C -10.8 °C 34577.8 hPa West 15.6 km/h 31.1 km/h 68 % 0 mm 888 W/m2
14:00 -7.6 °C -10.7 °C 34577.8 hPa NW 15.6 km/h 31.1 km/h 70 % 0 mm 694 W/m2
14:05 -7.6 °C -10.7 °C 34577.8 hPa WSW 7.7 km/h 31.1 km/h 70 % 0 mm 816 W/m2
14:10 -7.4 °C -10.7 °C 34577.8 hPa WNW 12.9 km/h 25.9 km/h 69 % 0 mm 919 W/m2
14:15 -7.6 °C -10.8 °C 34577.8 hPa WNW 23.3 km/h 33.6 km/h 69 % 0 mm 916 W/m2
14:20 -7.7 °C -11.1 °C 34577.8 hPa WSW 15.6 km/h 33.6 km/h 67 % 0 mm 802 W/m2
14:25 -7.6 °C -10.5 °C 34577.8 hPa WSW 10.3 km/h 33.6 km/h 71 % 0 mm 902 W/m2
14:30 -7.7 °C -10.6 °C 34577.8 hPa Calm   33.6 km/h 71 % 0 mm 947 W/m2
14:35 -7.5 °C -10.7 °C 34577.8 hPa WSW 18.2 km/h 33.6 km/h 69 % 0 mm 847 W/m2
14:40 -7.6 °C -10.9 °C 34577.8 hPa WSW 7.7 km/h 33.6 km/h 68 % 0 mm 967 W/m2
14:45 -7.8 °C -11.2 °C 34567.7 hPa SW 20.8 km/h 36.2 km/h 67 % 0 mm 919 W/m2
14:50 -7.6 °C -10.7 °C 34567.7 hPa West 10.3 km/h 36.2 km/h 70 % 0 mm 928 W/m2
14:55 -7.7 °C -11.1 °C 34577.8 hPa West 10.3 km/h 36.2 km/h 68 % 0 mm 622 W/m2
15:00 -7.8 °C -11.1 °C 34577.8 hPa WSW 12.9 km/h 41.4 km/h 69 % 0 mm 888 W/m2
15:05 -7.7 °C -10.8 °C 34577.8 hPa WSW 28.5 km/h 41.4 km/h 70 % 0 mm 893 W/m2
15:10 -7.6 °C -10.9 °C 34577.8 hPa WSW 18.2 km/h 41.4 km/h 68 % 0 mm 877 W/m2
15:15 -7.8 °C -11.2 °C 34577.8 hPa WSW 20.8 km/h 36.2 km/h 68 % 0 mm 826 W/m2
15:20 -7.9 °C -11.1 °C 34577.8 hPa WNW 23.3 km/h 38.8 km/h 69 % 0 mm 800 W/m2
15:25 -7.8 °C -11 °C 34577.8 hPa West 20.8 km/h 38.8 km/h 69 % 0 mm 865 W/m2
15:30 -7.6 °C -10.5 °C 34577.8 hPa WSW 25.9 km/h 33.6 km/h 71 % 0 mm 851 W/m2
15:35 -7.6 °C -11.1 °C 34577.8 hPa West 23.3 km/h 33.6 km/h 66 % 0 mm 858 W/m2
15:40 -7.6 °C -10.3 °C 34567.7 hPa West 12.9 km/h 33.6 km/h 73 % 0 mm 840 W/m2
15:45 -7.8 °C -10.9 °C 34567.7 hPa WSW 12.9 km/h 33.6 km/h 70 % 0 mm 847 W/m2
15:50 -7.7 °C -10.9 °C 34567.7 hPa SW 15.6 km/h 31.1 km/h 69 % 0 mm 791 W/m2
15:55 -7.7 °C -10.6 °C 34567.7 hPa West 25.9 km/h 36.2 km/h 71 % 0 mm 770 W/m2
16:00 -7.7 °C -10.7 °C 34567.7 hPa West 12.9 km/h 36.2 km/h 71 % 0 mm 805 W/m2
16:05 -7.6 °C -10.6 °C 34567.7 hPa NNW 10.3 km/h 31.1 km/h 71 % 0 mm 816 W/m2
16:10 -7.9 °C -10.9 °C 34567.7 hPa SSW 7.7 km/h 36.2 km/h 70 % 0 mm 772 W/m2
16:15 -7.9 °C -10.9 °C 34567.7 hPa WNW 15.6 km/h 36.2 km/h 70 % 0 mm 643 W/m2
16:20 -7.9 °C -10.7 °C 34567.7 hPa SW 18.2 km/h 33.6 km/h 73 % 0 mm 795 W/m2
16:25 -7.8 °C -10.7 °C 34567.7 hPa West 12.9 km/h 33.6 km/h 72 % 0 mm 800 W/m2
16:35 -7.7 °C -10.9 °C 34567.7 hPa WSW 12.9 km/h 33.6 km/h 69 % 0 mm 617 W/m2
16:40 -7.8 °C -10.9 °C 34567.7 hPa WSW 18.2 km/h 36.2 km/h 70 % 0 mm 766 W/m2
16:45 -7.9 °C -10.8 °C 34567.7 hPa WNW 7.7 km/h 36.2 km/h 72 % 0 mm 578 W/m2
16:50 -7.8 °C -10.7 °C 34567.7 hPa SSW 12.9 km/h 36.2 km/h 71 % 0 mm 831 W/m2
16:55 -7.6 °C -10.8 °C 34567.7 hPa West 10.3 km/h 31.1 km/h 69 % 0 mm 598 W/m2
17:00 -7.9 °C -10.9 °C 34567.7 hPa WSW 12.9 km/h 33.6 km/h 71 % 0 mm 239 W/m2
17:05 -8.2 °C -11 °C 34567.7 hPa West 20.8 km/h 33.6 km/h 72 % 0 mm 225 W/m2
17:10 -8.4 °C -11.1 °C 34567.7 hPa WSW 7.7 km/h 28.5 km/h 74 % 0 mm 234 W/m2
17:15 -8.4 °C -10.8 °C 34567.7 hPa WSW 7.7 km/h 28.5 km/h 76 % 0 mm 316 W/m2
17:20 -8.4 °C -10.9 °C 34567.7 hPa SW 10.3 km/h 25.9 km/h 75 % 0 mm 234 W/m2
17:25 -8.4 °C -10.7 °C 34567.7 hPa WSW 10.3 km/h 25.9 km/h 77 % 0 mm 287 W/m2
17:30 -8.2 °C -10.4 °C 34567.7 hPa SSW 7.7 km/h 25.9 km/h 78 % 0 mm 527 W/m2
17:35 -8 °C -10.6 °C 34567.7 hPa WSW 5.1 km/h 33.6 km/h 74 % 0 mm 728 W/m2
17:40 -7.9 °C -10.3 °C 34567.7 hPa WSW 15.6 km/h 33.6 km/h 76 % 0 mm 388 W/m2
17:45 -8.2 °C -10.4 °C 34567.7 hPa WSW 15.6 km/h 33.6 km/h 77 % 0 mm 631 W/m2
17:50 -8 °C -10.4 °C 34554.1 hPa SW 20.8 km/h 33.6 km/h 76 % 0 mm 596 W/m2
17:55 -7.9 °C -10.3 °C 34554.1 hPa WNW 15.6 km/h 33.6 km/h 76 % 0 mm 603 W/m2
18:05 -7.9 °C -10.2 °C 34554.1 hPa WSW 10.3 km/h 33.6 km/h 77 % 0 mm 146 W/m2
18:10 -8.2 °C -10.5 °C 34554.1 hPa West 28.5 km/h 36.2 km/h 76 % 0 mm 573 W/m2
18:15 -8 °C -10.5 °C 34554.1 hPa West 20.8 km/h 36.2 km/h 75 % 0 mm 399 W/m2
18:20 -8.2 °C -10.6 °C 34554.1 hPa WSW 10.3 km/h 36.2 km/h 75 % 0 mm 531 W/m2
18:25 -8.2 °C -10.8 °C 34554.1 hPa WSW 20.8 km/h 36.2 km/h 74 % 0 mm 508 W/m2
18:30 -8.1 °C -10.6 °C 34554.1 hPa WSW 28.5 km/h 36.2 km/h 75 % 0 mm 417 W/m2
18:35 -8.1 °C -10.4 °C 34544 hPa SW 12.9 km/h 33.6 km/h 77 % 0 mm 492 W/m2
18:40 -8 °C -10.6 °C 34544 hPa WNW 7.7 km/h 31.1 km/h 74 % 0 mm 399 W/m2
18:45 -8.1 °C -10.7 °C 34544 hPa WSW 7.7 km/h 31.1 km/h 74 % 0 mm 413 W/m2
18:50 -7.9 °C -10.6 °C 34544 hPa West 20.8 km/h 33.6 km/h 74 % 0 mm 438 W/m2
19:00 -8.1 °C -10.7 °C 34544 hPa WSW 15.6 km/h 31.1 km/h 74 % 0 mm 410 W/m2
19:05 -8 °C -10.7 °C 34544 hPa WSW 15.6 km/h 31.1 km/h 73 % 0 mm 227 W/m2
19:10 -8.2 °C -10.6 °C 34533.8 hPa WSW 7.7 km/h 33.6 km/h 76 % 0 mm 388 W/m2
19:15 -8.1 °C -10.6 °C 34544 hPa WSW 7.7 km/h 33.6 km/h 75 % 0 mm 338 W/m2
19:20 -8.2 °C -10.9 °C 34533.8 hPa WSW 12.9 km/h 36.2 km/h 73 % 0 mm 334 W/m2
19:25 -8.4 °C -10.9 °C 34533.8 hPa WSW 12.9 km/h 36.2 km/h 75 % 0 mm 253 W/m2
19:30 -8.4 °C -10.7 °C 34533.8 hPa West 15.6 km/h 31.1 km/h 77 % 0 mm 163 W/m2
19:35 -8.5 °C -10.9 °C 34533.8 hPa SSW 2.6 km/h 28.5 km/h 76 % 0 mm 105 W/m2
19:40 -8.7 °C -10.9 °C 34533.8 hPa West 15.6 km/h 31.1 km/h 77 % 0 mm 83 W/m2
19:45 -8.8 °C -10.8 °C 34533.8 hPa WNW 5.1 km/h 31.1 km/h 79 % 0 mm 113 W/m2
19:50 -8.8 °C -10.8 °C 34533.8 hPa WSW 23.3 km/h 28.5 km/h 79 % 0 mm 116 W/m2
19:55 -8.8 °C -10.8 °C 34533.8 hPa WSW 5.1 km/h 28.5 km/h 80 % 0 mm 111 W/m2
20:00 -8.8 °C -10.7 °C 34533.8 hPa West 12.9 km/h 25.9 km/h 80 % 0 mm 137 W/m2
20:05 -8.8 °C -10.7 °C 34533.8 hPa Calm   20.8 km/h 80 % 0 mm 128 W/m2
20:10 -8.8 °C -10.7 °C 34533.8 hPa WSW 5.1 km/h 25.9 km/h 80 % 0 mm 93 W/m2
20:15 -8.8 °C -10.7 °C 34533.8 hPa SW 7.7 km/h 25.9 km/h 81 % 0 mm 114 W/m2
20:20 -8.8 °C -10.6 °C 34533.8 hPa Calm   18.2 km/h 81 % 0 mm 95 W/m2
20:25 -8.8 °C -10.6 °C 34520.3 hPa WSW 23.3 km/h 23.3 km/h 82 % 0 mm 77 W/m2
20:30 -8.9 °C -10.7 °C 34520.3 hPa South 2.6 km/h 25.9 km/h 81 % 0 mm 84 W/m2
20:35 -8.9 °C -10.7 °C 34520.3 hPa WSW 7.7 km/h 25.9 km/h 81 % 0 mm 77 W/m2
20:40 -8.9 °C -10.8 °C 34520.3 hPa West 7.7 km/h 23.3 km/h 81 % 0 mm 67 W/m2
20:45 -9 °C -10.9 °C 34520.3 hPa SSW 7.7 km/h 20.8 km/h 80 % 0 mm 69 W/m2
20:50 -9 °C -10.9 °C 34520.3 hPa WSW 12.9 km/h 23.3 km/h 80 % 0 mm 65 W/m2
20:55 -9 °C -10.9 °C 34520.3 hPa SSW 7.7 km/h 23.3 km/h 80 % 0 mm 60 W/m2
21:00 -9 °C -10.8 °C 34510.1 hPa WSW 2.6 km/h 18.2 km/h 81 % 0 mm 54 W/m2
21:05 -9.1 °C -10.8 °C 34510.1 hPa SSW 15.6 km/h 18.2 km/h 81 % 0 mm 47 W/m2
21:10 -9 °C -10.8 °C 34510.1 hPa SSW 5.1 km/h 20.8 km/h 81 % 0 mm 40 W/m2
21:15 -9.1 °C -10.7 °C 34520.3 hPa Calm   20.8 km/h 82 % 0 mm 35 W/m2
21:20 -9.1 °C -10.8 °C 34510.1 hPa SSW 18.2 km/h 23.3 km/h 82 % 0 mm 32 W/m2
21:25 -9.1 °C -10.8 °C 34510.1 hPa SW 7.7 km/h 23.3 km/h 82 % 0 mm 30 W/m2
21:30 -9.2 °C -10.9 °C 34510.1 hPa SW 12.9 km/h 20.8 km/h 82 % 0 mm 26 W/m2
21:35 -9.2 °C -10.9 °C 34510.1 hPa Calm   20.8 km/h 82 % 0 mm 21 W/m2
21:40 -9.3 °C -10.8 °C 34510.1 hPa WSW 10.3 km/h 20.8 km/h 83 % 0 mm 14 W/m2
21:45 -9.3 °C -10.8 °C 34520.3 hPa WSW 5.1 km/h 20.8 km/h 83 % 0 mm 11 W/m2
21:50 -9.3 °C -10.9 °C 34510.1 hPa SW 12.9 km/h 20.8 km/h 83 % 0 mm 7 W/m2
21:55 -9.3 °C -10.9 °C 34510.1 hPa SW 7.7 km/h 20.8 km/h 83 % 0 mm 5 W/m2
22:00 -9.3 °C -10.9 °C 34510.1 hPa WSW 2.6 km/h 18.2 km/h 83 % 0 mm 0 W/m2
22:05 -9.4 °C -11 °C 34510.1 hPa SSW 12.9 km/h 15.6 km/h 83 % 0 mm 0 W/m2
22:10 -9.4 °C -11 °C 34510.1 hPa SSW 7.7 km/h 15.6 km/h 83 % 0 mm 0 W/m2
22:15 -9.4 °C -10.9 °C 34510.1 hPa SW 2.6 km/h 18.2 km/h 84 % 0 mm 0 W/m2
22:20 -9.4 °C -11.1 °C 34510.1 hPa South 7.7 km/h 18.2 km/h 83 % 0 mm 0 W/m2
22:25 -9.5 °C -11.1 °C 34510.1 hPa SSW 7.7 km/h 18.2 km/h 83 % 0 mm 0 W/m2
22:30 -9.5 °C -11.1 °C 34510.1 hPa SSW 10.3 km/h 20.8 km/h 83 % 0 mm 0 W/m2
22:35 -9.6 °C -11 °C 34510.1 hPa Calm   20.8 km/h 84 % 0 mm 0 W/m2
22:40 -9.5 °C -11 °C 34510.1 hPa SSW 7.7 km/h 18.2 km/h 84 % 0 mm 0 W/m2
22:45 -9.5 °C -11 °C 34510.1 hPa Calm   18.2 km/h 84 % 0 mm 0 W/m2
22:50 -9.6 °C -11.1 °C 34510.1 hPa SSW 5.1 km/h 12.9 km/h 84 % 0 mm 0 W/m2
23:00 -9.7 °C -11 °C 34510.1 hPa SSW 7.7 km/h 18.2 km/h 86 % 0 mm 0 W/m2
23:05 -9.7 °C -11.1 °C 34496.6 hPa South 2.6 km/h 18.2 km/h 85 % 0 mm 0 W/m2
23:10 -9.8 °C -11.1 °C 34496.6 hPa South 7.7 km/h 12.9 km/h 86 % 0 mm 0 W/m2
23:20 -9.8 °C -11.1 °C 34496.6 hPa South 7.7 km/h 12.9 km/h 86 % 0 mm 0 W/m2
23:25 -9.9 °C -11.2 °C 34496.6 hPa South 2.6 km/h 10.3 km/h 86 % 0 mm 0 W/m2
23:30 -9.9 °C -11.1 °C 34496.6 hPa South 2.6 km/h 10.3 km/h 87 % 0 mm 0 W/m2
23:35 -9.9 °C -11.2 °C 34496.6 hPa Calm   10.3 km/h 86 % 0 mm 0 W/m2
23:40 -10.1 °C -11.2 °C 34496.6 hPa Calm   10.3 km/h 87 % 0 mm 0 W/m2
23:45 -10.1 °C -11.3 °C 34496.6 hPa Calm   10.3 km/h 87 % 0 mm 0 W/m2
23:50 -10.1 °C -11.2 °C 34496.6 hPa South 5.1 km/h 10.3 km/h 88 % 0 mm 0 W/m2
23:55 -10.1 °C -11.2 °C 34496.6 hPa South 2.6 km/h 10.3 km/h 88 % 0 mm 0 W/m2
Avec l'autorisation de Weather Underground - 1.75 mb